Time;durP1;ratioP1;P1;durP2;ratioP2;P2;SDS_P1;SDS_P2;PMS_P1;PMS_P2;Temp;Humidity;BMP_temperature;BMP_pressure;BME280_temperature;BME280_humidity;BME280_pressure;Samples;Min_cycle;Max_cycle;Signal;HPM_P1;HPM_P2
2022/07/13 00:00:00;;;;;;;2.90;2.17;;;17.10;90.10;;;;;;5037953;28;20479;-51
2022/07/13 00:02:27;;;;;;;4.70;2.50;;;17.20;90.10;;;;;;5042428;28;21203;-51
2022/07/13 00:04:55;;;;;;;3.00;2.53;;;17.20;90.00;;;;;;5052067;28;20485;-52
2022/07/13 00:07:22;;;;;;;2.40;2.20;;;17.30;89.70;;;;;;5049609;28;20490;-51
2022/07/13 00:09:48;;;;;;;4.87;2.10;;;17.40;89.30;;;;;;5041417;28;20478;-51
2022/07/13 00:12:15;;;;;;;4.43;2.27;;;17.60;89.00;;;;;;5048338;28;20486;-51
2022/07/13 00:14:42;;;;;;;3.00;2.07;;;17.60;89.40;;;;;;5053014;28;21209;-52
2022/07/13 00:17:09;;;;;;;4.67;1.80;;;17.70;88.90;;;;;;5056648;28;20470;-51
2022/07/13 00:19:36;;;;;;;3.30;2.80;;;17.70;88.30;;;;;;5060194;28;20484;-51
2022/07/13 00:22:04;;;;;;;5.03;2.80;;;17.70;88.20;;;;;;5059209;28;20501;-51
2022/07/13 00:24:30;;;;;;;5.00;2.20;;;17.80;87.60;;;;;;5058544;28;20487;-51
2022/07/13 00:26:57;;;;;;;5.50;2.07;;;17.80;88.00;;;;;;5055965;28;20487;-51
2022/07/13 00:29:24;;;;;;;2.47;2.17;;;17.80;88.70;;;;;;5062268;28;20493;-52
2022/07/13 00:31:50;;;;;;;2.97;1.77;;;17.80;88.90;;;;;;5056544;28;20873;-51
2022/07/13 00:34:17;;;;;;;6.50;2.30;;;17.80;89.50;;;;;;5052299;28;20725;-51
2022/07/13 00:36:44;;;;;;;4.23;2.57;;;17.80;89.10;;;;;;5053687;28;21097;-51
2022/07/13 00:39:12;;;;;;;5.10;2.27;;;17.80;88.40;;;;;;5060397;28;20475;-53
2022/07/13 00:41:45;;;;;;;2.23;1.80;;;17.90;87.50;;;;;;5058901;28;20486;-51
2022/07/13 00:44:12;;;;;;;2.70;1.90;;;17.90;87.80;;;;;;5061877;28;20629;-51
2022/07/13 00:46:41;;;;;;;2.50;2.10;;;17.90;89.40;;;;;;5049193;28;20581;-51
2022/07/13 00:49:07;;;;;;;8.67;2.03;;;17.80;89.00;;;;;;5058516;28;20490;-51
2022/07/13 00:51:35;;;;;;;4.30;2.33;;;;;;;;;;5058890;28;20494;-51
2022/07/13 00:54:03;;;;;;;3.57;3.27;;;17.80;89.20;;;;;;5056349;28;20479;-51
2022/07/13 00:56:32;;;;;;;2.83;1.77;;;17.80;89.00;;;;;;5058671;28;20526;-51
2022/07/13 00:58:59;;;;;;;3.33;1.87;;;17.80;88.30;;;;;;5055915;28;20467;-51
2022/07/13 01:01:26;;;;;;;4.73;2.20;;;17.80;88.40;;;;;;5056496;28;20477;-51
2022/07/13 01:03:53;;;;;;;8.73;2.20;;;17.80;89.00;;;;;;5057101;28;20581;-50
2022/07/13 01:06:20;;;;;;;3.53;1.90;;;17.80;88.70;;;;;;5062254;28;20483;-51
2022/07/13 01:08:47;;;;;;;4.07;2.00;;;17.80;89.00;;;;;;5059406;28;20486;-51
2022/07/13 01:11:14;;;;;;;3.83;2.27;;;17.70;88.90;;;;;;5058558;28;20471;-51
2022/07/13 01:13:42;;;;;;;6.37;2.30;;;17.60;88.90;;;;;;5057725;28;20493;-50
2022/07/13 01:16:09;;;;;;;5.40;2.30;;;17.60;89.60;;;;;;5057952;28;20482;-50
2022/07/13 01:18:36;;;;;;;2.77;1.80;;;17.40;90.20;;;;;;5060953;28;20498;-51
2022/07/13 01:21:04;;;;;;;2.90;2.27;;;17.40;90.40;;;;;;5057853;28;20467;-50
2022/07/13 01:23:33;;;;;;;3.40;2.40;;;17.40;89.80;;;;;;5048722;28;20489;-50
2022/07/13 01:26:00;;;;;;;5.13;2.23;;;17.40;90.00;;;;;;5055109;28;20554;-51
2022/07/13 01:28:27;;;;;;;3.27;1.70;;;17.40;89.20;;;;;;5054508;28;21001;-50
2022/07/13 01:30:53;;;;;;;2.87;2.27;;;17.40;89.70;;;;;;5059781;28;20476;-50
2022/07/13 01:33:20;;;;;;;4.10;2.00;;;17.40;89.70;;;;;;5060050;28;20471;-51
2022/07/13 01:35:47;;;;;;;13.20;2.50;;;17.30;89.50;;;;;;5055558;28;20474;-51
2022/07/13 01:38:14;;;;;;;3.47;2.50;;;17.30;89.50;;;;;;5047078;28;20483;-51
2022/07/13 01:40:42;;;;;;;2.87;2.47;;;17.30;89.60;;;;;;5058503;28;20486;-50
2022/07/13 01:43:09;;;;;;;5.90;2.20;;;17.20;89.50;;;;;;5061452;28;20554;-50
2022/07/13 01:45:36;;;;;;;2.37;2.17;;;17.10;88.70;;;;;;5062528;28;20497;-50
2022/07/13 01:48:02;;;;;;;5.90;3.13;;;17.00;89.70;;;;;;5052799;28;20470;-50
2022/07/13 01:50:29;;;;;;;2.90;2.50;;;17.30;89.60;;;;;;5044953;28;20486;-50
2022/07/13 01:52:57;;;;;;;2.40;2.20;;;16.90;89.40;;;;;;5058267;28;20952;-50
2022/07/13 01:55:24;;;;;;;4.03;2.30;;;16.90;89.40;;;;;;5057865;28;20832;-50
2022/07/13 01:57:57;;;;;;;3.20;2.33;;;16.90;89.20;;;;;;5053687;28;20482;-50
2022/07/13 02:00:23;;;;;;;5.70;2.80;;;16.90;88.60;;;;;;5055141;28;20969;-50
2022/07/13 02:02:50;;;;;;;3.47;2.50;;;16.90;89.00;;;;;;5045747;28;20486;-50
2022/07/13 02:05:18;;;;;;;4.73;2.10;;;16.80;89.20;;;;;;5056099;28;20522;-50
2022/07/13 02:07:45;;;;;;;5.00;2.23;;;16.80;89.50;;;;;;5045117;28;21014;-50
2022/07/13 02:10:13;;;;;;;4.80;2.40;;;16.80;89.70;;;;;;5046757;28;21087;-51
2022/07/13 02:12:40;;;;;;;5.70;2.50;;;16.70;89.50;;;;;;5057040;28;20592;-50
2022/07/13 02:15:10;;;;;;;2.50;1.90;;;16.60;89.30;;;;;;5056922;28;20485;-50
2022/07/13 02:17:37;;;;;;;3.00;2.50;;;16.60;89.10;;;;;;5051748;28;20888;-51
2022/07/13 02:20:04;;;;;;;4.70;2.43;;;16.50;89.70;;;;;;5055896;28;20483;-50
2022/07/13 02:22:44;;;;;;;3.93;3.03;;;16.40;89.50;;;;;;5057304;28;20475;-50
2022/07/13 02:25:11;;;;;;;2.53;2.23;;;16.20;90.50;;;;;;5042184;28;20478;-50
2022/07/13 02:27:38;;;;;;;5.07;2.60;;;16.20;90.60;;;;;;5051969;28;20491;-50
2022/07/13 02:30:05;;;;;;;2.60;2.07;;;16.20;90.90;;;;;;5057904;28;20475;-50
2022/07/13 02:32:33;;;;;;;8.50;3.47;;;15.90;91.80;;;;;;5047279;28;20483;-50
2022/07/13 02:35:00;;;;;;;2.60;2.40;;;15.90;91.80;;;;;;5059610;28;20479;-50
2022/07/13 02:37:27;;;;;;;4.43;2.80;;;15.80;91.10;;;;;;5052103;28;20894;-51
2022/07/13 02:39:56;;;;;;;2.20;2.00;;;15.70;90.50;;;;;;5052132;28;21331;-49
2022/07/13 02:42:22;;;;;;;3.40;2.20;;;15.70;90.30;;;;;;5056330;28;20494;-50
2022/07/13 02:44:49;;;;;;;4.07;2.80;;;15.70;90.20;;;;;;5055518;28;20495;-49
2022/07/13 02:47:16;;;;;;;4.33;2.73;;;15.40;91.00;;;;;;5056587;28;20483;-50
2022/07/13 02:49:44;;;;;;;4.53;3.67;;;15.40;91.10;;;;;;5057221;28;20518;-49
2022/07/13 02:52:11;;;;;;;3.23;2.93;;;15.40;91.60;;;;;;5044831;28;20477;-50
2022/07/13 02:54:37;;;;;;;2.87;2.67;;;15.10;93.10;;;;;;5047598;28;20502;-50
2022/07/13 02:57:05;;;;;;;3.47;2.83;;;15.00;93.50;;;;;;5058303;28;20479;-50
2022/07/13 02:59:33;;;;;;;6.87;3.70;;;14.90;93.90;;;;;;5056360;28;20586;-50
2022/07/13 03:01:59;;;;;;;4.77;3.33;;;15.00;92.90;;;;;;5057410;28;20583;-50
2022/07/13 03:04:26;;;;;;;3.23;2.67;;;15.10;92.40;;;;;;5047861;28;20490;-50
2022/07/13 03:06:54;;;;;;;3.47;3.17;;;15.20;91.80;;;;;;5048412;28;21000;-50
2022/07/13 03:09:21;;;;;;;3.27;2.57;;;15.20;91.70;;;;;;5042683;28;20571;-50
2022/07/13 03:11:48;;;;;;;4.73;3.70;;;15.30;91.50;;;;;;5045243;28;20482;-50
2022/07/13 03:14:15;;;;;;;3.60;3.10;;;15.30;90.90;;;;;;5039764;28;20489;-50
2022/07/13 03:16:42;;;;;;;4.10;3.70;;;15.40;90.60;;;;;;5020989;28;20944;-50
2022/07/13 03:19:09;;;;;;;2.87;2.47;;;15.40;90.40;;;;;;5022735;28;20478;-50
2022/07/13 03:21:36;;;;;;;3.40;3.10;;;15.40;90.70;;;;;;5007888;28;20487;-50
2022/07/13 03:24:04;;;;;;;5.40;2.87;;;15.30;90.40;;;;;;5041303;28;20530;-50
2022/07/13 03:26:31;;;;;;;5.23;3.60;;;15.30;90.40;;;;;;5001544;28;21410;-51
2022/07/13 03:28:58;;;;;;;4.93;4.23;;;15.30;90.80;;;;;;4994797;28;20507;-50
2022/07/13 03:31:26;;;;;;;7.30;2.70;;;15.20;91.10;;;;;;5012975;28;20484;-50
2022/07/13 03:33:53;;;;;;;3.80;3.50;;;15.20;90.90;;;;;;5057835;28;20866;-50
2022/07/13 03:36:19;;;;;;;3.33;2.93;;;15.20;91.30;;;;;;5028526;28;20491;-51
2022/07/13 03:38:46;;;;;;;5.33;3.97;;;15.30;90.70;;;;;;5006877;28;20482;-50
2022/07/13 03:41:14;;;;;;;3.60;2.90;;;15.20;90.70;;;;;;4980837;28;20487;-50
2022/07/13 03:43:40;;;;;;;4.57;4.17;;;15.20;91.00;;;;;;5005844;28;20482;-50
2022/07/13 03:46:07;;;;;;;4.43;2.87;;;15.10;91.00;;;;;;4996381;28;20499;-50
2022/07/13 03:48:34;;;;;;;4.93;4.50;;;14.90;91.10;;;;;;4973789;28;20853;-49
2022/07/13 03:51:01;;;;;;;5.93;4.10;;;14.80;91.00;;;;;;5009026;28;20490;-49
2022/07/13 03:53:28;;;;;;;4.07;2.23;;;14.70;91.40;;;;;;5031113;28;20502;-49
2022/07/13 03:55:54;;;;;;;4.57;3.57;;;14.70;91.70;;;;;;4978876;28;20484;-49
2022/07/13 03:58:22;;;;;;;7.03;3.17;;;14.60;91.60;;;;;;4980555;28;20979;-49
2022/07/13 04:00:49;;;;;;;7.10;2.83;;;14.50;91.60;;;;;;5053817;28;21306;-49
2022/07/13 04:03:16;;;;;;;7.87;3.30;;;14.50;91.60;;;;;;4975003;28;20487;-50
2022/07/13 04:05:42;;;;;;;6.13;4.23;;;14.40;91.70;;;;;;5007052;28;20491;-50
2022/07/13 04:08:09;;;;;;;4.33;2.97;;;14.30;91.70;;;;;;4982121;28;20490;-49
2022/07/13 04:10:36;;;;;;;7.17;5.47;;;14.20;92.10;;;;;;5035138;28;20484;-49
2022/07/13 04:13:02;;;;;;;3.33;3.03;;;14.10;92.20;;;;;;5048136;28;21004;-49
2022/07/13 04:15:31;;;;;;;6.63;3.63;;;14.10;93.20;;;;;;5039162;28;20487;-50
2022/07/13 04:17:57;;;;;;;4.67;3.80;;;14.10;93.90;;;;;;5050752;28;20490;-50
2022/07/13 04:20:24;;;;;;;8.00;3.40;;;14.10;94.30;;;;;;5054434;28;20485;-49
2022/07/13 04:22:51;;;;;;;5.47;3.47;;;14.20;94.90;;;;;;5055953;28;20550;-49
2022/07/13 04:25:17;;;;;;;6.83;4.90;;;14.30;95.20;;;;;;5055287;28;21101;-49
2022/07/13 04:27:44;;;;;;;8.77;5.27;;;14.20;95.40;;;;;;5055272;28;20490;-49
2022/07/13 04:30:11;;;;;;;4.53;3.57;;;14.30;94.70;;;;;;5044896;28;20478;-49
2022/07/13 04:32:39;;;;;;;4.60;3.47;;;14.50;93.80;;;;;;5061477;28;20502;-49
2022/07/13 04:35:07;;;;;;;7.00;4.40;;;14.50;93.60;;;;;;5050954;28;20565;-49
2022/07/13 04:37:35;;;;;;;17.33;6.80;;;14.50;94.20;;;;;;5046922;28;20491;-49
2022/07/13 04:40:02;;;;;;;8.03;3.80;;;14.60;94.00;;;;;;5056901;28;20467;-49
2022/07/13 04:42:28;;;;;;;4.60;3.63;;;14.80;93.80;;;;;;5056347;28;20479;-49
2022/07/13 04:44:55;;;;;;;3.57;2.80;;;14.90;93.80;;;;;;5056503;28;20467;-49
2022/07/13 04:47:22;;;;;;;4.03;3.73;;;15.10;93.70;;;;;;5055641;28;20474;-49
2022/07/13 04:49:50;;;;;;;4.40;3.97;;;15.10;93.50;;;;;;5055921;28;20976;-49
2022/07/13 04:52:17;;;;;;;7.40;3.50;;;15.40;93.20;;;;;;5054952;28;20938;-49
2022/07/13 04:54:44;;;;;;;5.80;5.20;;;15.60;93.30;;;;;;5053846;28;20482;-49
2022/07/13 04:57:11;;;;;;;4.50;4.10;;;15.60;93.30;;;;;;5053882;28;20508;-49
2022/07/13 04:59:37;;;;;;;7.20;4.10;;;15.80;93.30;;;;;;5055238;28;20481;-49
2022/07/13 05:02:04;;;;;;;3.23;2.93;;;15.90;93.40;;;;;;5054728;28;21011;-49
2022/07/13 05:04:31;;;;;;;3.10;2.60;;;16.00;93.30;;;;;;5061864;28;21012;-49
2022/07/13 05:06:59;;;;;;;7.10;3.30;;;16.20;93.40;;;;;;5061215;28;20881;-49
2022/07/13 05:09:26;;;;;;;3.60;3.10;;;16.20;93.40;;;;;;5059920;28;20479;-49
2022/07/13 05:11:53;;;;;;;3.80;3.50;;;16.30;93.20;;;;;;5052447;28;20475;-49
2022/07/13 05:14:19;;;;;;;4.93;3.57;;;16.40;93.20;;;;;;5058331;28;20860;-49
2022/07/13 05:16:46;;;;;;;4.57;3.67;;;16.60;93.50;;;;;;5033583;28;20901;-50
2022/07/13 05:19:13;;;;;;;5.40;3.00;;;16.70;93.40;;;;;;5059269;28;20492;-50
2022/07/13 05:21:39;;;;;;;3.97;3.67;;;16.80;93.40;;;;;;5057471;28;20479;-49
2022/07/13 05:24:07;;;;;;;7.13;3.70;;;16.80;93.90;;;;;;5058354;28;20491;-50
2022/07/13 05:26:36;;;;;;;3.80;3.33;;;16.90;93.80;;;;;;5054384;28;21069;-49
2022/07/13 05:29:04;;;;;;;5.10;3.00;;;17.10;93.30;;;;;;5059901;28;20494;-51
2022/07/13 05:31:31;;;;;;;6.03;2.80;;;17.10;93.50;;;;;;5058399;28;20479;-49
2022/07/13 05:33:58;;;;;;;3.33;3.03;;;17.30;93.70;;;;;;5062232;28;20761;-49
2022/07/13 05:36:24;;;;;;;3.27;3.00;;;17.40;93.70;;;;;;5059484;28;20859;-49
2022/07/13 05:38:51;;;;;;;4.20;3.53;;;17.50;93.60;;;;;;5059197;28;20934;-49
2022/07/13 05:41:19;;;;;;;3.60;3.20;;;17.70;93.70;;;;;;5058108;28;20486;-49
2022/07/13 05:43:47;;;;;;;3.53;3.23;;;17.80;93.50;;;;;;5059468;28;20481;-49
2022/07/13 05:46:13;;;;;;;5.00;3.67;;;17.80;93.70;;;;;;5050493;28;20950;-50
2022/07/13 05:48:40;;;;;;;4.80;4.30;;;17.80;93.50;;;;;;5058977;28;20494;-49
2022/07/13 05:51:07;;;;;;;5.60;3.13;;;17.90;93.80;;;;;;5059452;28;20485;-50
2022/07/13 05:53:33;;;;;;;3.67;3.37;;;17.90;93.80;;;;;;5062968;28;20652;-49
2022/07/13 05:56:00;;;;;;;4.83;3.20;;;18.00;94.00;;;;;;5031268;28;20504;-49
2022/07/13 05:58:28;;;;;;;3.47;2.90;;;18.20;93.90;;;;;;5058045;28;20479;-49
2022/07/13 06:00:55;;;;;;;3.73;3.33;;;18.30;93.90;;;;;;5055440;28;20490;-49
2022/07/13 06:03:22;;;;;;;4.00;3.33;;;18.30;94.70;;;;;;5058690;28;20471;-49
2022/07/13 06:05:48;;;;;;;5.90;4.57;;;18.30;94.90;;;;;;5055238;28;20484;-50
2022/07/13 06:08:15;;;;;;;4.10;3.70;;;18.30;94.70;;;;;;5058377;28;20494;-49
2022/07/13 06:10:42;;;;;;;4.93;4.53;;;18.30;94.60;;;;;;5057466;28;20481;-50
2022/07/13 06:13:08;;;;;;;3.33;3.13;;;18.40;94.90;;;;;;5058874;28;20913;-50
2022/07/13 06:15:37;;;;;;;3.77;3.47;;;18.60;94.80;;;;;;5058893;28;20976;-50
2022/07/13 06:18:05;;;;;;;3.63;3.33;;;18.90;94.00;;;;;;5058097;28;21068;-50
2022/07/13 06:20:31;;;;;;;4.07;3.13;;;19.10;93.50;;;;;;5051153;28;20477;-50
2022/07/13 06:23:10;;;;;;;4.00;3.00;;;19.30;93.40;;;;;;5056339;28;20491;-50
2022/07/13 06:25:37;;;;;;;4.80;3.10;;;19.50;93.30;;;;;;5024098;28;20939;-50
2022/07/13 06:28:04;;;;;;;3.23;2.93;;;19.60;93.50;;;;;;5053184;28;20489;-50
2022/07/13 06:30:31;;;;;;;3.73;3.43;;;19.80;94.10;;;;;;5056104;28;20481;-50
2022/07/13 06:32:59;;;;;;;3.13;2.83;;;20.10;93.90;;;;;;5057378;28;20479;-49
2022/07/13 06:35:26;;;;;;;4.73;3.00;;;20.10;94.20;;;;;;5055939;28;20483;-50
2022/07/13 06:37:53;;;;;;;4.27;3.20;;;20.30;94.00;;;;;;5059309;28;20681;-50
2022/07/13 06:40:20;;;;;;;3.10;2.90;;;20.50;94.10;;;;;;5055924;28;20546;-50
2022/07/13 06:42:47;;;;;;;3.23;2.93;;;20.70;93.30;;;;;;5057201;28;20491;-51
2022/07/13 06:45:15;;;;;;;3.60;3.30;;;21.00;92.60;;;;;;5059140;28;20491;-51
2022/07/13 06:47:42;;;;;;;4.07;2.83;;;21.40;91.80;;;;;;5056347;28;20486;-52
2022/07/13 06:50:11;;;;;;;3.90;2.97;;;21.70;90.90;;;;;;5056492;28;20479;-50
2022/07/13 06:52:40;;;;;;;3.07;2.57;;;22.00;89.90;;;;;;5057316;28;20507;-51
2022/07/13 06:55:07;;;;;;;3.47;2.83;;;22.40;87.10;;;;;;5057820;28;20951;-50
2022/07/13 06:57:34;;;;;;;6.00;2.73;;;22.40;87.40;;;;;;5054896;28;21025;-51
2022/07/13 07:00:00;;;;;;;2.30;2.07;;;22.70;83.90;;;;;;5058710;28;20489;-51
2022/07/13 07:02:27;;;;;;;2.63;2.33;;;22.80;84.50;;;;;;5056047;28;20490;-51
2022/07/13 07:04:54;;;;;;;2.20;2.00;;;23.00;85.60;;;;;;5058403;28;20509;-51
2022/07/13 07:07:22;;;;;;;4.00;2.43;;;23.10;84.50;;;;;;5059366;28;21047;-51
2022/07/13 07:09:49;;;;;;;3.80;2.50;;;23.10;84.70;;;;;;5055810;28;20474;-52
2022/07/13 07:12:16;;;;;;;2.40;2.20;;;23.40;84.60;;;;;;5055525;28;20483;-51
2022/07/13 07:14:43;;;;;;;2.50;2.27;;;23.70;85.50;;;;;;5057211;28;20483;-51
2022/07/13 07:17:09;;;;;;;3.60;2.30;;;23.90;83.80;;;;;;5056420;28;20483;-51
2022/07/13 07:19:36;;;;;;;3.70;2.67;;;24.10;82.00;;;;;;5062566;28;21027;-51
2022/07/13 07:22:03;;;;;;;2.63;2.00;;;24.10;82.40;;;;;;5056202;28;20471;-51
2022/07/13 07:24:31;;;;;;;4.57;1.97;;;24.50;81.60;;;;;;5055898;28;20471;-52
2022/07/13 07:26:58;;;;;;;2.83;1.97;;;24.70;81.90;;;;;;5061458;28;20604;-52
2022/07/13 07:29:25;;;;;;;2.43;2.23;;;24.80;82.10;;;;;;5055516;28;20483;-51
2022/07/13 07:31:51;;;;;;;3.70;2.03;;;25.00;80.90;;;;;;5047332;28;20864;-52
2022/07/13 07:34:18;;;;;;;3.20;1.80;;;25.00;81.80;;;;;;5055806;28;21007;-52
2022/07/13 07:36:45;;;;;;;2.30;2.10;;;25.20;80.40;;;;;;5051883;28;20486;-51
2022/07/13 07:39:12;;;;;;;2.47;2.27;;;25.30;80.50;;;;;;5061302;28;20505;-52
2022/07/13 07:41:40;;;;;;;3.23;2.57;;;25.40;80.40;;;;;;5031663;28;20471;-51
2022/07/13 07:44:08;;;;;;;3.60;2.50;;;25.60;81.90;;;;;;5064219;28;21038;-52
2022/07/13 07:46:35;;;;;;;3.30;2.00;;;26.00;79.70;;;;;;5049470;28;20972;-52
2022/07/13 07:49:03;;;;;;;2.20;2.00;;;26.00;80.70;;;;;;5057009;28;20475;-52
2022/07/13 07:51:29;;;;;;;2.07;1.70;;;26.30;81.50;;;;;;5056200;28;20490;-52
2022/07/13 07:53:56;;;;;;;5.40;2.37;;;26.90;80.00;;;;;;5057021;28;20860;-52
2022/07/13 07:56:23;;;;;;;2.30;2.00;;;27.20;79.10;;;;;;5051653;28;20471;-52
2022/07/13 07:58:51;;;;;;;2.27;2.07;;;27.50;79.00;;;;;;5055227;28;20506;-52
2022/07/13 08:01:18;;;;;;;4.50;1.97;;;27.60;77.40;;;;;;5048150;28;20494;-52
2022/07/13 08:03:45;;;;;;;2.80;2.20;;;27.90;75.80;;;;;;5057920;28;20523;-52
2022/07/13 08:06:12;;;;;;;2.63;1.93;;;28.20;76.40;;;;;;5055445;28;20475;-53
2022/07/13 08:08:39;;;;;;;5.40;2.30;;;28.40;74.90;;;;;;5058685;28;20487;-52
2022/07/13 08:11:07;;;;;;;4.17;2.20;;;28.50;72.90;;;;;;5056779;28;20838;-52
2022/07/13 08:13:34;;;;;;;2.50;2.20;;;28.50;71.90;;;;;;5057830;28;20621;-52
2022/07/13 08:16:03;;;;;;;4.10;1.40;;;28.60;69.60;;;;;;5056228;28;20490;-52
2022/07/13 08:18:30;;;;;;;2.40;1.67;;;28.60;68.60;;;;;;5053302;28;20582;-52
2022/07/13 08:20:56;;;;;;;2.37;1.40;;;28.60;68.10;;;;;;5056662;28;20490;-52
2022/07/13 08:26:07;;;;;;;1.90;1.43;;;28.20;67.40;;;;;;5055229;28;20970;-52
2022/07/13 08:28:34;;;;;;;5.67;1.80;;;28.30;69.80;;;;;;5053593;28;20475;-53
2022/07/13 08:31:02;;;;;;;1.90;1.60;;;28.30;69.90;;;;;;5058372;28;20830;-53
2022/07/13 08:39:02;;;;;;;4.17;1.60;;;28.20;66.30;;;;;;5055378;28;20505;-53
2022/07/13 08:41:30;;;;;;;3.43;1.70;;;28.20;67.10;;;;;;5059913;28;20491;-52
2022/07/13 08:43:57;;;;;;;1.90;1.50;;;28.20;66.60;;;;;;5061590;28;20482;-52
2022/07/13 08:46:29;;;;;;;7.33;1.93;;;28.30;65.10;;;;;;5057206;28;20489;-53
2022/07/13 08:48:57;;;;;;;3.50;1.60;;;28.30;66.20;;;;;;5039148;28;21058;-52
2022/07/13 08:51:25;;;;;;;6.87;1.70;;;28.60;69.50;;;;;;5059378;28;20797;-52
2022/07/13 08:53:52;;;;;;;2.17;1.60;;;28.80;66.00;;;;;;5050184;28;20712;-53
2022/07/13 08:56:19;;;;;;;3.00;1.50;;;29.30;67.00;;;;;;5058111;28;20964;-54
2022/07/13 08:58:46;;;;;;;3.03;1.53;;;;;;;;;;5060270;28;21019;-54
2022/07/13 09:01:14;;;;;;;10.27;1.30;;;29.70;63.60;;;;;;5059881;28;20486;-53
2022/07/13 09:03:43;;;;;;;3.43;1.70;;;29.80;65.10;;;;;;5031537;28;20478;-53
2022/07/13 09:06:10;;;;;;;2.10;1.27;;;30.40;63.60;;;;;;5058742;28;20463;-53
2022/07/13 09:08:43;;;;;;;1.90;1.37;;;30.30;60.00;;;;;;5058103;28;20515;-53
2022/07/13 09:11:10;;;;;;;2.00;1.73;;;30.40;63.30;;;;;;5063732;28;21051;-54
2022/07/13 09:13:39;;;;;;;2.00;1.30;;;30.70;61.20;;;;;;5058057;28;20477;-52
2022/07/13 09:16:14;;;;;;;2.23;1.50;;;30.70;61.50;;;;;;5055274;28;20530;-54
2022/07/13 09:18:43;;;;;;;2.00;1.37;;;31.00;64.70;;;;;;5058099;28;20506;-54
2022/07/13 09:21:10;;;;;;;2.40;1.40;;;31.30;62.50;;;;;;5059806;28;20858;-53
2022/07/13 09:23:37;;;;;;;2.50;1.43;;;31.30;60.70;;;;;;5057049;28;20450;-53
2022/07/13 09:26:04;;;;;;;1.80;1.00;;;31.40;63.40;;;;;;5058975;28;20490;-53
2022/07/13 09:28:43;;;;;;;1.80;1.30;;;31.40;58.90;;;;;;5058541;28;20457;-53
2022/07/13 09:31:10;;;;;;;2.23;1.30;;;31.40;59.30;;;;;;5057232;28;20499;-54
2022/07/13 09:33:38;;;;;;;2.43;1.33;;;31.50;61.50;;;;;;5057362;28;20457;-54
2022/07/13 09:36:11;;;;;;;2.93;1.30;;;31.20;57.80;;;;;;5054744;28;20457;-53
2022/07/13 09:38:41;;;;;;;2.20;1.40;;;31.00;58.50;;;;;;5059925;28;20892;-54
2022/07/13 09:41:24;;;;;;;2.40;1.80;;;30.90;56.50;;;;;;5051196;28;20450;-53
2022/07/13 09:46:53;;;;;;;1.87;1.07;;;31.00;60.40;;;;;;5054175;28;20720;-54
2022/07/13 09:49:29;;;;;;;10.50;1.33;;;31.30;60.90;;;;;;5047082;28;20502;-56
2022/07/13 09:51:58;;;;;;;3.10;1.27;;;31.70;60.70;;;;;;5059158;28;20568;-54
2022/07/13 09:54:28;;;;;;;1.80;1.30;;;31.80;59.90;;;;;;5060654;28;20553;-56
2022/07/13 09:56:58;;;;;;;1.80;1.03;;;32.60;60.60;;;;;;5046118;28;20516;-55
2022/07/13 09:59:26;;;;;;;1.70;1.00;;;32.50;56.90;;;;;;5054862;28;21467;-54
2022/07/13 10:01:53;;;;;;;2.00;1.40;;;32.30;56.80;;;;;;5063156;28;20474;-55
2022/07/13 10:04:21;;;;;;;3.17;1.20;;;32.30;57.20;;;;;;5057283;28;20848;-55
2022/07/13 10:06:48;;;;;;;1.70;1.10;;;32.30;58.60;;;;;;5057153;28;20539;-55
2022/07/13 10:09:19;;;;;;;2.73;1.10;;;32.40;56.20;;;;;;5049242;28;20441;-54
2022/07/13 10:11:46;;;;;;;1.80;1.03;;;32.50;57.80;;;;;;5051913;28;20823;-55
2022/07/13 10:14:15;;;;;;;3.30;0.87;;;32.80;60.00;;;;;;5057266;28;21007;-56
2022/07/13 10:16:43;;;;;;;3.93;1.27;;;33.30;58.50;;;;;;5060711;28;20450;-56
2022/07/13 10:19:11;;;;;;;2.50;0.87;;;33.60;57.80;;;;;;5064543;28;20481;-57
2022/07/13 10:21:53;;;;;;;1.70;0.87;;;33.70;57.40;;;;;;5037907;28;20483;-55
2022/07/13 10:24:21;;;;;;;1.80;1.00;;;33.60;52.30;;;;;;5036759;28;20476;-55
2022/07/13 10:26:49;;;;;;;1.70;0.90;;;33.50;53.70;;;;;;5045063;28;20475;-53
2022/07/13 10:29:16;;;;;;;4.40;1.10;;;33.40;54.40;;;;;;5038904;28;20483;-55
2022/07/13 10:31:43;;;;;;;2.17;1.00;;;33.40;53.80;;;;;;5057505;28;20576;-53
2022/07/13 10:34:12;;;;;;;1.77;1.07;;;33.00;52.20;;;;;;5056488;28;20462;-53
2022/07/13 10:36:51;;;;;;;4.50;1.27;;;33.00;52.20;;;;;;5054838;28;20449;-53
2022/07/13 10:39:19;;;;;;;1.77;0.90;;;32.80;50.90;;;;;;5057338;28;20518;-52
2022/07/13 10:42:04;;;;;;;3.70;1.07;;;32.70;53.50;;;;;;5055080;28;20449;-53
2022/07/13 10:44:33;;;;;;;4.30;1.00;;;32.50;50.70;;;;;;5056532;28;20935;-53
2022/07/13 10:47:03;;;;;;;1.70;0.83;;;32.30;50.00;;;;;;5052918;28;20487;-52
2022/07/13 10:49:47;;;;;;;2.80;1.13;;;32.30;48.60;;;;;;5051037;28;20462;-53
2022/07/13 10:52:50;;;;;;;4.17;0.97;;;32.20;49.60;;;;;;5056234;28;20446;-53
2022/07/13 10:55:34;;;;;;;3.50;1.00;;;32.10;48.30;;;;;;5056391;28;20907;-54
2022/07/13 10:58:41;;;;;;;1.70;0.80;;;31.90;50.30;;;;;;5053652;28;20507;-52
2022/07/13 11:01:37;;;;;;;1.70;0.90;;;31.80;50.00;;;;;;5054781;28;20483;-53
2022/07/13 11:04:05;;;;;;;2.77;0.80;;;31.80;47.00;;;;;;5056460;28;20921;-52
2022/07/13 11:06:33;;;;;;;2.53;0.90;;;31.80;47.80;;;;;;5043280;28;20573;-53
2022/07/13 11:09:10;;;;;;;1.90;0.80;;;32.00;50.50;;;;;;5054668;28;20878;-53
2022/07/13 11:11:45;;;;;;;1.70;0.90;;;32.40;49.50;;;;;;5046055;28;20490;-53
2022/07/13 11:15:00;;;;;;;1.80;0.90;;;32.70;49.00;;;;;;5059365;28;21067;-54
2022/07/13 11:17:28;;;;;;;2.30;0.90;;;33.10;51.90;;;;;;5048260;28;20453;-54
2022/07/13 11:20:09;;;;;;;2.13;0.80;;;33.30;53.00;;;;;;5056687;28;20837;-54
2022/07/13 11:25:41;;;;;;;3.07;1.00;;;33.80;49.10;;;;;;5028378;28;20491;-56
2022/07/13 11:28:31;;;;;;;5.50;1.20;;;34.00;48.50;;;;;;5052273;28;20814;-52
2022/07/13 11:30:58;;;;;;;2.10;1.53;;;34.20;51.20;;;;;;5033976;28;20454;-53
2022/07/13 11:33:26;;;;;;;6.17;1.07;;;34.00;47.40;;;;;;5066324;28;20478;-53
2022/07/13 11:35:53;;;;;;;1.90;1.10;;;33.80;46.70;;;;;;5057509;28;20478;-54
2022/07/13 11:38:21;;;;;;;1.70;0.90;;;33.20;45.80;;;;;;5057177;28;20453;-54
2022/07/13 11:40:48;;;;;;;5.00;1.43;;;33.60;49.70;;;;;;5058965;28;20467;-53
2022/07/13 11:43:15;;;;;;;3.30;1.03;;;33.80;46.70;;;;;;5056634;28;20483;-55
2022/07/13 11:45:43;;;;;;;2.67;0.70;;;33.80;47.50;;;;;;5051327;28;20804;-54
2022/07/13 11:48:15;;;;;;;1.70;0.90;;;34.10;48.70;;;;;;5054651;28;20588;-54
2022/07/13 11:50:51;;;;;;;1.83;0.93;;;34.10;49.00;;;;;;5055209;28;21118;-54
2022/07/13 11:53:26;;;;;;;1.60;0.70;;;34.70;48.30;;;;;;5049385;28;20471;-54
2022/07/13 11:55:54;;;;;;;4.67;0.80;;;35.00;48.40;;;;;;5020746;28;20475;-53
2022/07/13 11:58:23;;;;;;;1.60;0.70;;;35.30;47.40;;;;;;5049414;28;20479;-53
2022/07/13 12:00:50;;;;;;;1.70;0.80;;;35.60;45.50;;;;;;5055657;28;20462;-54
2022/07/13 12:03:24;;;;;;;1.60;0.73;;;35.70;45.30;;;;;;5055320;28;20487;-55
2022/07/13 12:05:53;;;;;;;4.17;0.90;;;36.00;44.00;;;;;;5047755;28;20478;-54
2022/07/13 12:08:19;;;;;;;1.50;0.57;;;36.00;41.90;;;;;;5052724;28;20469;-55
2022/07/13 12:10:46;;;;;;;1.50;0.50;;;36.10;40.10;;;;;;5058661;28;20474;-54
2022/07/13 12:13:13;;;;;;;3.87;0.70;;;35.90;37.00;;;;;;5059706;28;20488;-53
2022/07/13 12:15:39;;;;;;;1.60;0.60;;;35.70;37.80;;;;;;5057442;28;20483;-52
2022/07/13 12:18:06;;;;;;;1.50;0.60;;;35.40;38.80;;;;;;5058202;28;20505;-52
2022/07/13 12:20:34;;;;;;;3.03;0.90;;;35.30;42.30;;;;;;5060916;28;21216;-52
2022/07/13 12:23:06;;;;;;;1.60;0.70;;;35.30;41.10;;;;;;5061206;28;20520;-53
2022/07/13 12:25:34;;;;;;;1.80;0.90;;;35.20;41.00;;;;;;5061075;28;20869;-53
2022/07/13 12:28:03;;;;;;;2.67;0.70;;;35.00;42.90;;;;;;5058911;28;20482;-53
2022/07/13 12:30:32;;;;;;;1.60;0.70;;;34.90;42.20;;;;;;5058723;28;20527;-52
2022/07/13 12:33:00;;;;;;;1.50;0.60;;;34.70;41.60;;;;;;5059517;28;21022;-52
2022/07/13 12:35:28;;;;;;;2.73;0.90;;;34.60;43.50;;;;;;5050240;28;20490;-52
2022/07/13 12:37:56;;;;;;;1.70;0.70;;;34.50;46.00;;;;;;5020269;28;20962;-52
2022/07/13 12:40:42;;;;;;;2.33;0.70;;;34.40;44.40;;;;;;5028451;28;20845;-52
2022/07/13 12:43:23;;;;;;;4.17;0.70;;;34.20;46.00;;;;;;5059530;28;20453;-52
2022/07/13 12:45:52;;;;;;;5.73;1.10;;;33.70;41.60;;;;;;5060756;28;20457;-52
2022/07/13 12:48:21;;;;;;;2.73;0.90;;;33.70;42.60;;;;;;5059696;28;20490;-53
2022/07/13 12:50:57;;;;;;;2.27;0.97;;;33.50;48.20;;;;;;5055791;28;20465;-52
2022/07/13 12:53:24;;;;;;;1.50;0.60;;;33.40;48.80;;;;;;5025521;28;20471;-52
2022/07/13 12:55:54;;;;;;;2.20;0.83;;;33.20;47.30;;;;;;5060487;28;20449;-52
2022/07/13 12:58:22;;;;;;;2.53;0.90;;;33.10;46.80;;;;;;5056199;28;20501;-53
2022/07/13 13:00:48;;;;;;;1.80;0.70;;;32.90;45.40;;;;;;5058168;28;20490;-52
2022/07/13 13:03:15;;;;;;;11.33;1.33;;;32.90;45.90;;;;;;5060379;28;20808;-53
2022/07/13 13:05:42;;;;;;;3.73;0.80;;;33.00;46.20;;;;;;5057154;28;20465;-52
2022/07/13 13:08:09;;;;;;;2.43;0.90;;;33.00;46.60;;;;;;5057229;28;20445;-52